createdAt,value
2022-08-10T00:01:52.354Z,0.00
2022-08-10T00:04:22.841Z,0.00
2022-08-10T00:06:55.654Z,0.10
2022-08-10T00:09:24.974Z,0.10
2022-08-10T00:11:53.723Z,0.00
2022-08-10T00:14:22.518Z,0.00
2022-08-10T00:16:51.236Z,0.00
2022-08-10T00:19:19.937Z,0.00
2022-08-10T00:21:48.789Z,0.00
2022-08-10T00:24:18.998Z,0.00
2022-08-10T00:27:51.914Z,0.10
2022-08-10T00:29:36.203Z,0.10
2022-08-10T00:32:05.231Z,0.00
2022-08-10T00:34:35.347Z,0.00
2022-08-10T00:37:03.945Z,0.00
2022-08-10T00:39:35.968Z,0.00
2022-08-10T00:42:08.144Z,0.10
2022-08-10T00:44:38.205Z,0.00
2022-08-10T00:47:35.420Z,0.07
2022-08-10T00:49:57.164Z,0.00
2022-08-10T00:52:28.207Z,0.10
2022-08-10T00:54:58.624Z,0.00
2022-08-10T00:57:27.931Z,0.00
2022-08-10T00:59:59.094Z,0.03
2022-08-10T01:02:31.047Z,0.00
2022-08-10T01:05:02.314Z,0.10
2022-08-10T01:07:49.372Z,0.00
2022-08-10T01:10:27.275Z,0.00
2022-08-10T01:13:02.479Z,0.00
2022-08-10T01:15:35.611Z,0.00
2022-08-10T01:18:06.293Z,0.00
2022-08-10T01:20:40.348Z,0.10
2022-08-10T01:23:35.311Z,0.07
2022-08-10T01:26:32.268Z,0.00
2022-08-10T01:29:18.053Z,0.00
2022-08-10T01:31:52.678Z,0.00
2022-08-10T01:34:25.533Z,0.00
2022-08-10T01:37:01.071Z,0.00
2022-08-10T01:39:34.133Z,0.00
2022-08-10T01:42:04.398Z,0.10
2022-08-10T01:44:37.955Z,0.00
2022-08-10T01:47:29.165Z,0.00
2022-08-10T01:50:06.516Z,0.00
2022-08-10T01:52:38.005Z,0.07
2022-08-10T01:55:08.678Z,0.00
2022-08-10T01:57:39.118Z,0.00
2022-08-10T02:00:09.806Z,0.00
2022-08-10T02:02:42.125Z,0.00
2022-08-10T02:05:12.446Z,0.07
2022-08-10T02:07:42.808Z,0.10
2022-08-10T02:10:14.628Z,0.00
2022-08-10T02:12:45.882Z,0.10
2022-08-10T02:15:17.596Z,0.10
2022-08-10T02:17:59.904Z,0.10
2022-08-10T02:20:36.309Z,0.00
2022-08-10T02:23:08.962Z,0.00
2022-08-10T02:25:40.773Z,0.00
2022-08-10T02:28:30.208Z,0.00
2022-08-10T02:31:06.649Z,0.00
2022-08-10T02:33:39.030Z,0.00
2022-08-10T02:36:27.837Z,0.00
2022-08-10T02:39:01.678Z,0.10
2022-08-10T02:45:01.475Z,0.10
2022-08-10T02:45:21.966Z,0.07
2022-08-10T02:47:26.763Z,0.03
2022-08-10T02:50:04.494Z,0.10
2022-08-10T02:52:42.362Z,0.10
2022-08-10T02:55:18.530Z,0.00
2022-08-10T02:58:17.196Z,0.00
2022-08-10T03:00:46.705Z,0.00
2022-08-10T03:03:21.274Z,0.10
2022-08-10T03:05:56.178Z,0.00
2022-08-10T03:08:30.907Z,0.00
2022-08-10T03:11:03.709Z,0.10
2022-08-10T03:13:33.744Z,0.00
2022-08-10T03:16:04.360Z,0.00
2022-08-10T03:18:34.604Z,0.00
2022-08-10T03:21:11.317Z,0.03
2022-08-10T03:23:43.331Z,0.00
2022-08-10T03:26:16.509Z,0.10
2022-08-10T03:28:47.645Z,0.00
2022-08-10T03:31:17.505Z,0.00
2022-08-10T03:33:47.694Z,0.00
2022-08-10T03:36:42.309Z,0.00
2022-08-10T03:39:06.718Z,0.00
2022-08-10T03:41:38.820Z,0.00
2022-08-10T03:44:09.575Z,0.00
2022-08-10T03:46:41.117Z,0.10
2022-08-10T03:49:13.134Z,0.00
2022-08-10T03:51:44.416Z,0.10
2022-08-10T03:54:13.531Z,0.00
2022-08-10T03:56:42.775Z,0.10
2022-08-10T03:59:13.733Z,0.07
2022-08-10T04:02:45.980Z,0.00
2022-08-10T04:04:32.952Z,0.00
2022-08-10T04:07:04.722Z,0.00
2022-08-10T04:09:55.895Z,0.00
2022-08-10T04:12:24.631Z,0.00
2022-08-10T04:14:53.955Z,0.00
2022-08-10T04:18:04.262Z,0.00
2022-08-10T04:20:19.734Z,0.10
2022-08-10T04:22:53.420Z,0.00
2022-08-10T04:25:24.305Z,0.10
2022-08-10T04:27:53.972Z,0.00
2022-08-10T04:30:22.951Z,0.10
2022-08-10T04:32:55.377Z,0.10
2022-08-10T04:35:27.598Z,0.00
2022-08-10T04:37:59.676Z,0.10
2022-08-10T04:40:30.927Z,0.00
2022-08-10T04:43:07.417Z,0.00
2022-08-10T04:45:50.370Z,0.10
2022-08-10T04:48:40.956Z,0.10
2022-08-10T04:51:19.263Z,0.00
2022-08-10T04:54:03.846Z,0.00
2022-08-10T04:56:36.353Z,0.00
2022-08-10T04:59:07.049Z,0.00
2022-08-10T05:01:37.765Z,0.10
2022-08-10T05:04:36.444Z,0.00
2022-08-10T05:07:16.646Z,0.00
2022-08-10T05:10:04.066Z,0.00
2022-08-10T05:12:36.840Z,0.10
2022-08-10T05:15:11.079Z,0.00
2022-08-10T05:17:40.313Z,0.00
2022-08-10T05:20:16.157Z,0.00
2022-08-10T05:22:46.074Z,0.00
2022-08-10T05:25:17.945Z,0.10
2022-08-10T05:27:47.611Z,0.00
2022-08-10T05:30:18.655Z,0.00
2022-08-10T05:32:56.189Z,0.00
2022-08-10T05:35:55.304Z,0.00
2022-08-10T05:38:19.124Z,0.00
2022-08-10T05:40:50.568Z,0.00
2022-08-10T05:43:20.669Z,0.00
2022-08-10T05:46:19.850Z,0.00
2022-08-10T05:48:59.146Z,0.03
2022-08-10T05:51:30.424Z,0.00
2022-08-10T05:54:04.002Z,0.10
2022-08-10T05:56:54.147Z,0.00
2022-08-10T06:00:10.845Z,0.00
2022-08-10T06:02:48.249Z,0.00
2022-08-10T06:05:30.565Z,0.07
2022-08-10T06:08:03.045Z,0.03
2022-08-10T06:10:35.306Z,0.00
2022-08-10T06:13:30.674Z,0.00
2022-08-10T06:16:15.058Z,0.00
2022-08-10T06:18:44.540Z,0.00
2022-08-10T06:21:15.927Z,0.00
2022-08-10T06:23:48.804Z,0.00
2022-08-10T06:26:21.428Z,0.05
2022-08-10T06:29:03.145Z,0.00
2022-08-10T06:31:48.407Z,0.00
2022-08-10T06:34:24.149Z,0.10
2022-08-10T06:36:54.629Z,0.05
2022-08-10T06:39:39.820Z,0.05
2022-08-10T06:42:18.480Z,0.10
2022-08-10T06:44:59.369Z,0.05
2022-08-10T06:47:39.097Z,0.00
2022-08-10T06:50:15.211Z,0.10
2022-08-10T06:53:04.493Z,0.00
2022-08-10T06:55:40.178Z,0.10
2022-08-10T06:58:26.655Z,0.03
2022-08-10T07:00:58.509Z,0.03
2022-08-10T07:11:15.936Z,0.03
2022-08-10T07:14:17.357Z,0.00
2022-08-10T07:16:40.059Z,0.10
2022-08-10T07:19:11.155Z,0.03
2022-08-10T07:21:41.565Z,0.10
2022-08-10T07:24:13.494Z,0.00
2022-08-10T07:26:47.886Z,0.10
2022-08-10T07:29:52.900Z,0.10
2022-08-10T07:32:11.933Z,0.00
2022-08-10T07:34:42.595Z,0.00
2022-08-10T07:37:13.243Z,0.00
2022-08-10T07:39:58.462Z,0.00
2022-08-10T07:42:34.656Z,0.00
2022-08-10T07:45:05.670Z,0.00
2022-08-10T07:47:53.285Z,0.00
2022-08-10T07:50:26.856Z,0.10
2022-08-10T07:53:02.511Z,0.00
2022-08-10T07:56:04.296Z,0.00
2022-08-10T07:58:28.896Z,0.00
2022-08-10T08:00:59.430Z,0.00
2022-08-10T08:03:32.945Z,0.00
2022-08-10T08:06:11.356Z,0.00
2022-08-10T08:08:44.185Z,0.10
2022-08-10T08:11:25.446Z,0.00
2022-08-10T08:13:56.973Z,0.00
2022-08-10T08:16:27.084Z,0.00
2022-08-10T08:24:06.199Z,0.00
2022-08-10T08:24:42.339Z,0.10
2022-08-10T08:27:15.373Z,0.10
2022-08-10T08:29:49.112Z,0.08
2022-08-10T08:32:23.198Z,0.00
2022-08-10T08:34:58.535Z,0.00
2022-08-10T08:38:29.255Z,0.00
2022-08-10T08:40:25.494Z,0.10
2022-08-10T08:43:18.116Z,0.10
2022-08-10T08:46:08.263Z,0.00
2022-08-10T08:49:10.047Z,0.10
2022-08-10T08:52:07.955Z,0.10
2022-08-10T08:54:50.429Z,0.00
2022-08-10T08:57:49.861Z,0.10
2022-08-10T09:00:26.956Z,0.00
2022-08-10T09:03:34.808Z,0.00
2022-08-10T09:06:19.518Z,0.10
2022-08-10T09:09:23.208Z,0.00
2022-08-10T09:12:03.870Z,0.10
2022-08-10T09:14:40.741Z,0.00
2022-08-10T09:17:18.396Z,0.00
2022-08-10T09:19:51.458Z,0.00
2022-08-10T09:22:32.635Z,0.10
2022-08-10T09:25:15.445Z,0.00
2022-08-10T09:27:49.566Z,0.10
2022-08-10T09:30:29.599Z,0.03
2022-08-10T09:36:27.002Z,0.10
2022-08-10T09:36:29.980Z,0.20
2022-08-10T09:39:10.321Z,0.10
2022-08-10T09:42:14.934Z,0.10
2022-08-10T09:44:57.617Z,0.10
2022-08-10T09:47:59.962Z,0.13
2022-08-10T09:51:21.012Z,0.10
2022-08-10T09:53:46.511Z,0.10
2022-08-10T09:56:28.789Z,0.10
2022-08-10T09:59:29.228Z,0.10
2022-08-10T10:02:11.623Z,0.10
2022-08-10T10:04:48.943Z,0.20
2022-08-10T10:07:25.317Z,0.15
2022-08-10T10:10:01.472Z,0.20
2022-08-10T10:12:41.823Z,0.10
2022-08-10T10:15:25.041Z,0.10
2022-08-10T10:18:14.768Z,0.10
2022-08-10T10:20:53.756Z,0.10
2022-08-10T10:23:59.868Z,0.20
2022-08-10T10:26:42.922Z,0.10
2022-08-10T10:29:57.512Z,0.10
2022-08-10T10:32:23.456Z,0.20
2022-08-10T10:35:01.000Z,0.20
2022-08-10T10:38:01.407Z,0.20
2022-08-10T10:40:22.984Z,0.20
2022-08-10T10:42:58.091Z,0.10
2022-08-10T10:45:40.321Z,0.10
2022-08-10T10:48:28.916Z,0.15
2022-08-10T10:51:10.297Z,0.10
2022-08-10T10:53:49.189Z,0.20
2022-08-10T10:56:26.526Z,0.20
2022-08-10T10:59:53.383Z,0.10
2022-08-10T11:02:06.858Z,0.20
2022-08-10T11:04:47.262Z,0.17
2022-08-10T11:07:23.790Z,0.17
2022-08-10T11:10:31.954Z,0.15
2022-08-10T11:14:26.144Z,0.10
2022-08-10T11:16:10.286Z,0.10
2022-08-10T11:19:01.435Z,0.20
2022-08-10T11:21:44.885Z,0.10
2022-08-10T11:24:48.090Z,0.20
2022-08-10T11:27:22.104Z,0.10
2022-08-10T11:30:02.175Z,0.20
2022-08-10T11:32:39.232Z,0.20
2022-08-10T11:35:14.612Z,0.17
2022-08-10T11:38:30.391Z,0.20
2022-08-10T11:40:52.983Z,0.20
2022-08-10T11:43:27.507Z,0.10
2022-08-10T11:46:07.870Z,0.17
2022-08-10T11:48:53.492Z,0.20
2022-08-10T11:51:31.666Z,0.20
2022-08-10T11:54:09.364Z,0.20
2022-08-10T11:56:47.292Z,0.20
2022-08-10T11:59:36.194Z,0.20
2022-08-10T12:02:07.768Z,0.20
2022-08-10T12:04:40.731Z,0.20
2022-08-10T12:10:06.915Z,0.20
2022-08-10T12:10:13.585Z,0.20
2022-08-10T12:12:50.165Z,0.17
2022-08-10T12:15:25.063Z,0.20
2022-08-10T12:18:00.587Z,0.20
2022-08-10T12:20:34.921Z,0.20
2022-08-10T12:23:12.423Z,0.20
2022-08-10T12:25:57.025Z,0.20
2022-08-10T12:28:50.671Z,0.20
2022-08-10T12:31:27.071Z,0.20
2022-08-10T12:34:08.394Z,0.20
2022-08-10T12:36:43.188Z,0.20
2022-08-10T12:39:18.468Z,0.17
2022-08-10T12:41:59.229Z,0.20
2022-08-10T12:44:41.340Z,0.20
2022-08-10T12:47:23.498Z,0.20
2022-08-10T12:50:31.280Z,0.20
2022-08-10T12:53:06.679Z,0.20
2022-08-10T12:55:39.382Z,0.20
2022-08-10T12:58:59.557Z,0.20
2022-08-10T13:01:17.795Z,0.20
2022-08-10T13:04:23.027Z,0.20
2022-08-10T13:06:46.389Z,0.13
2022-08-10T13:09:16.847Z,0.20
2022-08-10T13:12:34.289Z,0.20
2022-08-10T13:14:49.754Z,0.20
2022-08-10T13:17:38.751Z,0.20
2022-08-10T13:20:18.172Z,0.20
2022-08-10T13:22:49.895Z,0.20
2022-08-10T13:25:29.852Z,0.20
2022-08-10T13:28:37.161Z,0.20
2022-08-10T13:30:56.095Z,0.20
2022-08-10T13:34:41.096Z,0.20
2022-08-10T13:36:24.242Z,0.20
2022-08-10T13:38:57.090Z,0.20
2022-08-10T13:41:31.385Z,0.20
2022-08-10T13:44:02.037Z,0.20
2022-08-10T13:46:33.508Z,0.30
2022-08-10T13:49:07.067Z,0.20
2022-08-10T13:51:53.886Z,0.20
2022-08-10T13:54:30.467Z,0.20
2022-08-10T13:57:01.646Z,0.20
2022-08-10T14:00:34.661Z,0.25
2022-08-10T14:02:31.097Z,0.30
2022-08-10T14:05:01.308Z,0.22
2022-08-10T14:07:35.257Z,0.20
2022-08-10T14:10:08.654Z,0.20
2022-08-10T14:12:39.922Z,0.20
2022-08-10T14:15:11.223Z,0.10
2022-08-10T14:17:45.058Z,0.20
2022-08-10T14:20:22.481Z,0.30
2022-08-10T14:23:08.766Z,0.30
2022-08-10T14:26:32.833Z,0.20
2022-08-10T14:36:20.923Z,0.20
2022-08-10T14:37:03.141Z,0.20
2022-08-10T14:40:51.048Z,0.20
2022-08-10T14:49:26.683Z,0.20
2022-08-10T14:51:46.030Z,0.20
2022-08-10T14:55:59.918Z,0.20
2022-08-10T15:00:20.965Z,0.20
2022-08-10T15:12:15.626Z,0.20
2022-08-10T15:24:49.030Z,0.28
2022-08-10T15:31:18.853Z,0.30
2022-08-10T15:34:52.846Z,0.30
2022-08-10T15:37:41.452Z,0.20
2022-08-10T15:40:31.262Z,0.20
2022-08-10T15:43:24.387Z,0.20
2022-08-10T15:46:03.428Z,0.20
2022-08-10T15:48:40.096Z,0.30
2022-08-10T15:51:54.361Z,0.20
2022-08-10T15:54:34.528Z,0.20
2022-08-10T16:06:04.940Z,0.20
2022-08-10T16:10:22.306Z,0.20
2022-08-10T16:12:43.989Z,0.20
2022-08-10T16:16:04.504Z,0.30
2022-08-10T16:19:24.230Z,0.30
2022-08-10T16:22:01.815Z,0.30
2022-08-10T16:24:37.416Z,0.20
2022-08-10T16:27:10.170Z,0.20
2022-08-10T16:29:55.608Z,0.30
2022-08-10T16:33:08.866Z,0.20
2022-08-10T16:35:54.980Z,0.20
2022-08-10T16:39:58.864Z,0.30
2022-08-10T16:42:18.274Z,0.30
2022-08-10T16:52:44.696Z,0.25
2022-08-10T16:55:49.574Z,0.17
2022-08-10T16:59:52.141Z,0.20
2022-08-10T17:08:55.438Z,0.25
2022-08-10T17:11:41.462Z,0.30
2022-08-10T17:14:23.425Z,0.20
2022-08-10T17:17:24.167Z,0.25
2022-08-10T17:20:30.156Z,0.20
2022-08-10T17:22:56.630Z,0.20
2022-08-10T17:28:41.103Z,0.20
2022-08-10T17:34:51.267Z,0.17
2022-08-10T17:37:31.541Z,0.20
2022-08-10T17:40:06.405Z,0.20
2022-08-10T17:42:44.618Z,0.20
2022-08-10T17:45:49.361Z,0.20
2022-08-10T17:48:16.324Z,0.20
2022-08-10T17:50:50.215Z,0.15
2022-08-10T17:53:22.871Z,0.20
2022-08-10T17:56:00.842Z,0.30
2022-08-10T17:58:34.536Z,0.20
2022-08-10T18:01:40.919Z,0.10
2022-08-10T18:03:58.809Z,0.10
2022-08-10T18:06:31.749Z,0.10
2022-08-10T18:09:08.506Z,0.10
2022-08-10T18:11:55.000Z,0.10
2022-08-10T18:14:31.066Z,0.10
2022-08-10T18:17:02.526Z,0.43
2022-08-10T18:19:45.711Z,0.10
2022-08-10T18:22:15.669Z,0.10
2022-08-10T18:24:45.978Z,0.10
2022-08-10T18:27:16.926Z,0.10
2022-08-10T18:29:52.736Z,0.10
2022-08-10T18:32:27.638Z,0.10
2022-08-10T18:35:03.702Z,0.10
2022-08-10T18:37:38.160Z,0.10
2022-08-10T18:40:12.704Z,0.10
2022-08-10T18:42:48.052Z,0.10
2022-08-10T18:45:21.211Z,0.10
2022-08-10T18:47:59.616Z,0.10
2022-08-10T18:50:32.153Z,0.10
2022-08-10T18:53:05.141Z,0.10
2022-08-10T18:55:46.114Z,0.10
2022-08-10T18:59:03.055Z,0.10
2022-08-10T19:01:53.241Z,0.10
2022-08-10T19:04:42.694Z,0.20
2022-08-10T19:07:37.687Z,0.15
2022-08-10T19:10:17.874Z,0.03
2022-08-10T19:12:59.882Z,0.10
2022-08-10T19:15:40.526Z,0.10
2022-08-10T19:18:31.212Z,0.10
2022-08-10T19:21:08.483Z,0.10
2022-08-10T19:23:54.652Z,0.10
2022-08-10T19:26:46.696Z,0.00
2022-08-10T19:30:08.172Z,0.17
2022-08-10T19:32:31.109Z,0.10
2022-08-10T19:35:16.093Z,0.00
2022-08-10T19:38:00.427Z,0.00
2022-08-10T19:40:43.945Z,0.10
2022-08-10T19:43:59.347Z,0.08
2022-08-10T19:46:25.998Z,0.10
2022-08-10T19:49:04.951Z,0.10
2022-08-10T19:52:24.631Z,0.15
2022-08-10T19:55:21.660Z,0.05
2022-08-10T19:57:56.673Z,0.10
2022-08-10T20:00:29.680Z,0.03
2022-08-10T20:03:11.991Z,0.00
2022-08-10T20:06:19.358Z,0.10
2022-08-10T20:08:46.377Z,0.10
2022-08-10T20:11:44.969Z,0.00
2022-08-10T20:14:21.597Z,0.00
2022-08-10T20:16:57.812Z,0.03
2022-08-10T20:19:52.736Z,0.00
2022-08-10T20:22:31.646Z,0.10
2022-08-10T20:25:08.005Z,0.00
2022-08-10T20:27:59.147Z,0.10
2022-08-10T20:30:33.498Z,0.00
2022-08-10T20:33:09.543Z,0.10
2022-08-10T20:35:50.996Z,0.10
2022-08-10T20:38:27.228Z,0.10
2022-08-10T20:41:08.477Z,0.10
2022-08-10T20:43:46.123Z,0.10
2022-08-10T20:46:24.349Z,0.00
2022-08-10T20:49:01.763Z,0.10
2022-08-10T20:51:59.260Z,0.00
2022-08-10T20:54:34.773Z,0.00
2022-08-10T20:57:55.082Z,0.10
2022-08-10T21:00:24.619Z,0.05
2022-08-10T21:03:21.078Z,0.10
2022-08-10T21:06:09.750Z,0.08
2022-08-10T21:08:52.355Z,0.00
2022-08-10T21:11:37.202Z,0.00
2022-08-10T21:14:30.539Z,0.10
2022-08-10T21:17:23.077Z,0.08
2022-08-10T21:20:16.507Z,0.10
2022-08-10T21:22:48.345Z,0.10
2022-08-10T21:25:29.456Z,0.00
2022-08-10T21:28:37.713Z,0.10
2022-08-10T21:31:21.959Z,0.10
2022-08-10T21:34:08.625Z,0.10
2022-08-10T21:36:44.418Z,0.10
2022-08-10T21:39:19.964Z,0.10
2022-08-10T21:42:14.809Z,0.00
2022-08-10T21:45:16.717Z,0.10
2022-08-10T21:48:18.800Z,0.00
2022-08-10T21:51:14.653Z,0.10
2022-08-10T21:54:09.014Z,0.03
2022-08-10T21:57:00.754Z,0.00
2022-08-10T21:59:58.689Z,0.05
2022-08-10T22:02:50.249Z,0.00
2022-08-10T22:05:42.718Z,0.10
2022-08-10T22:08:32.677Z,0.10
2022-08-10T22:11:22.285Z,0.00
2022-08-10T22:14:10.088Z,0.00
2022-08-10T22:17:59.510Z,0.00
2022-08-10T22:20:25.076Z,0.10
2022-08-10T22:23:30.642Z,0.00
2022-08-10T22:26:28.817Z,0.08
2022-08-10T22:29:18.841Z,0.10
2022-08-10T22:32:18.169Z,0.10
2022-08-10T22:35:32.052Z,0.10
2022-08-10T22:38:35.716Z,0.00
2022-08-10T22:41:45.050Z,0.00
2022-08-10T22:44:37.349Z,0.10
2022-08-10T22:47:25.917Z,0.00
2022-08-10T22:49:54.107Z,0.10
2022-08-10T22:52:35.387Z,0.00
2022-08-10T22:55:43.282Z,0.00
2022-08-10T22:58:44.752Z,0.00
2022-08-10T23:01:38.630Z,0.00
2022-08-10T23:04:16.166Z,0.00
2022-08-10T23:06:52.437Z,0.00
2022-08-10T23:09:24.097Z,0.00
2022-08-10T23:11:58.151Z,0.10
2022-08-10T23:14:38.044Z,0.10
2022-08-10T23:18:00.498Z,0.00
2022-08-10T23:20:25.508Z,0.00
2022-08-10T23:23:07.458Z,0.00
2022-08-10T23:25:57.405Z,0.05
2022-08-10T23:28:38.243Z,0.10
2022-08-10T23:31:51.814Z,0.00
2022-08-10T23:34:13.551Z,0.05
2022-08-10T23:36:44.498Z,0.10
2022-08-10T23:39:26.697Z,0.10
2022-08-10T23:42:06.397Z,0.00
2022-08-10T23:44:39.868Z,0.10
2022-08-10T23:47:11.894Z,0.00
2022-08-10T23:49:42.598Z,0.10
2022-08-10T23:52:15.353Z,0.10
2022-08-10T23:54:50.388Z,0.05
2022-08-10T23:57:22.725Z,0.00
2022-08-10T23:59:59.377Z,0.10
